Time;durP1;ratioP1;P1;durP2;ratioP2;P2;SDS_P1;SDS_P2;PMS_P1;PMS_P2;Temp;Humidity;BMP_temperature;BMP_pressure;BME280_temperature;BME280_humidity;BME280_pressure;Samples;Min_cycle;Max_cycle;Signal;HPM_P1;HPM_P2
2023/02/03 00:01:35;;;;;;;3.38;1.20;;;;;;;10.16;100.00;97378.00;5051332;28;20085;-48
2023/02/03 00:04:03;;;;;;;3.08;1.70;;;;;;;10.55;100.00;97372.38;5050639;28;20110;-52
2023/02/03 00:06:32;;;;;;;4.90;1.65;;;;;;;10.20;100.00;97366.25;5047925;28;20087;-52
2023/02/03 00:09:01;;;;;;;2.90;1.58;;;;;;;10.05;100.00;97371.88;5055788;28;20076;-49
2023/02/03 00:11:32;;;;;;;4.78;1.70;;;;;;;10.32;100.00;97376.81;5055010;28;20595;-50
2023/02/03 00:14:00;;;;;;;5.43;2.25;;;;;;;10.77;100.00;97356.53;5053322;28;20084;-46
2023/02/03 00:16:29;;;;;;;6.95;2.35;;;;;;;10.25;100.00;97362.41;5051085;28;20072;-50
2023/02/03 00:18:57;;;;;;;4.53;2.00;;;;;;;10.42;100.00;97344.34;5052586;28;20080;-47
2023/02/03 00:21:26;;;;;;;3.00;1.77;;;;;;;10.50;100.00;97351.66;5051808;28;20529;-50
2023/02/03 00:23:54;;;;;;;1.80;1.40;;;;;;;10.41;100.00;97352.38;5051871;28;20076;-47
2023/02/03 00:26:24;;;;;;;4.18;1.95;;;;;;;10.49;100.00;97347.31;5046976;28;20072;-52
2023/02/03 00:28:54;;;;;;;4.90;1.67;;;;;;;10.37;100.00;97338.59;5050284;28;20107;-48
2023/02/03 00:31:23;;;;;;;4.07;2.33;;;;;;;10.15;100.00;97344.72;5055024;28;20073;-48
2023/02/03 00:33:56;;;;;;;6.07;3.20;;;;;;;10.06;100.00;97345.41;5060203;28;20077;-51
2023/02/03 00:36:25;;;;;;;5.80;1.92;;;;;;;10.39;100.00;97352.50;5058734;28;20666;-54
2023/02/03 00:38:54;;;;;;;2.58;1.30;;;;;;;10.55;100.00;97346.00;5057494;28;20095;-54
2023/02/03 00:41:22;;;;;;;4.22;1.90;;;;;;;10.15;100.00;97343.84;5059707;28;20095;-50
2023/02/03 00:43:50;;;;;;;2.30;1.65;;;;;;;9.91;100.00;97359.75;5064060;28;20073;-53
2023/02/03 00:46:20;;;;;;;5.10;1.90;;;;;;;10.03;100.00;97348.28;5053492;28;20073;-50
2023/02/03 00:48:48;;;;;;;2.57;1.50;;;;;;;10.07;100.00;97354.16;5057164;28;20091;-52
2023/02/03 00:51:17;;;;;;;4.20;1.60;;;;;;;9.99;100.00;97360.03;5056591;28;20080;-50
2023/02/03 00:53:45;;;;;;;2.85;1.33;;;;;;;10.37;100.00;97354.41;5056175;28;20077;-52
2023/02/03 00:56:14;;;;;;;3.75;1.50;;;;;;;10.30;100.00;97355.88;5051053;28;20088;-55
2023/02/03 00:58:42;;;;;;;3.05;1.30;;;;;;;10.12;100.00;97352.84;5055014;28;20076;-55
2023/02/03 01:01:10;;;;;;;1.77;1.20;;;;;;;10.12;100.00;97352.84;5058944;28;20068;-49
2023/02/03 01:03:46;;;;;;;3.80;1.33;;;;;;;10.27;100.00;97353.47;5049279;28;20125;-51
2023/02/03 01:06:16;;;;;;;4.53;1.55;;;;;;;10.09;100.00;97346.97;5053967;28;20817;-52
2023/02/03 01:08:46;;;;;;;1.95;1.08;;;;;;;9.93;100.00;97356.06;5051610;28;20077;-49
2023/02/03 01:11:17;;;;;;;5.60;1.17;;;;;;;10.24;100.00;97351.03;5057353;28;20257;-48
2023/02/03 01:13:45;;;;;;;3.28;1.95;;;;;;;10.23;100.00;97342.28;5058033;28;20096;-54
2023/02/03 01:16:17;;;;;;;3.70;1.52;;;;;;;10.58;100.00;97343.13;5057216;28;20080;-54
2023/02/03 01:18:48;;;;;;;1.98;1.17;;;;;;;10.35;100.00;97351.06;5053819;28;20073;-48
2023/02/03 01:21:17;;;;;;;3.90;1.02;;;;;;;10.58;100.00;97328.13;5051165;28;20080;-50
2023/02/03 01:23:46;;;;;;;3.57;1.23;;;;;;;10.48;100.00;97339.56;5054964;28;20077;-49
2023/02/03 01:26:16;;;;;;;1.60;1.05;;;;;;;10.40;100.00;97326.97;5057736;28;20483;-47
2023/02/03 01:28:50;;;;;;;3.13;1.23;;;;;;;10.47;100.00;97329.97;5062182;28;20486;-52
2023/02/03 01:31:20;;;;;;;2.17;1.08;;;;;;;10.41;100.00;97333.91;5056318;28;20080;-52
2023/02/03 01:33:51;;;;;;;3.60;1.15;;;;;;;10.37;100.00;97329.84;5054368;28;20088;-53
2023/02/03 01:36:20;;;;;;;1.40;1.05;;;;;;;10.34;100.00;97320.38;5053939;28;20091;-53
2023/02/03 01:38:49;;;;;;;4.80;1.23;;;;;;;10.59;100.00;97318.41;5051717;28;20096;-54
2023/02/03 01:41:19;;;;;;;3.40;1.02;;;;;;;10.29;100.00;97308.53;5059950;28;20781;-53
2023/02/03 01:43:50;;;;;;;4.78;1.30;;;;;;;10.58;100.00;97327.31;5054099;28;20520;-52
2023/02/03 01:46:24;;;;;;;2.80;1.02;;;;;;;10.69;100.00;97327.28;5052858;28;20482;-54
2023/02/03 01:48:58;;;;;;;4.53;1.20;;;;;;;10.76;100.00;97328.44;5056751;28;20087;-51
2023/02/03 01:51:27;;;;;;;2.95;1.10;;;;;;;10.40;100.00;97330.44;5056031;28;20555;-51
2023/02/03 01:53:56;;;;;;;1.20;0.82;;;;;;;10.76;100.00;97323.16;5060537;28;20091;-50
2023/02/03 01:56:25;;;;;;;1.92;1.10;;;;;;;10.44;100.00;97328.41;5056975;28;20072;-50
2023/02/03 01:58:53;;;;;;;3.88;1.30;;;;;;;10.58;100.00;97322.03;5053398;28;20084;-47
2023/02/03 02:01:21;;;;;;;2.30;1.17;;;;;;;10.47;100.00;97314.97;5051581;28;20076;-53
2023/02/03 02:03:53;;;;;;;2.50;1.00;;;;;;;10.26;100.00;97319.34;5052570;28;20081;-50
2023/02/03 02:06:23;;;;;;;2.38;1.00;;;;;;;10.53;100.00;97314.50;5056098;28;20424;-47
2023/02/03 02:08:53;;;;;;;3.67;1.33;;;;;;;10.39;100.00;97328.78;5038219;28;20052;-49
2023/02/03 02:11:21;;;;;;;2.53;1.00;;;;;;;10.41;100.00;97310.19;5054681;28;20081;-51
2023/02/03 02:13:51;;;;;;;7.53;1.15;;;;;;;10.87;100.00;97328.44;5050511;28;20077;-48
2023/02/03 02:16:24;;;;;;;1.45;0.98;;;;;;;10.58;100.00;97320.22;5056078;28;20087;-48
2023/02/03 02:19:04;;;;;;;5.07;1.20;;;;;;;10.88;100.00;97322.19;5053118;28;20073;-51
2023/02/03 02:21:44;;;;;;;4.93;1.52;;;;;;;10.63;100.00;97322.47;5051249;28;20084;-54
2023/02/03 02:24:44;;;;;;;3.00;1.13;;;;;;;10.49;100.00;97326.22;5059047;28;20126;-52
2023/02/03 02:27:25;;;;;;;2.67;1.10;;;;;;;10.59;100.00;97334.25;5055959;28;20048;-50
2023/02/03 02:30:28;;;;;;;2.70;1.52;;;;;;;10.60;100.00;97328.03;5053925;28;20084;-53
2023/02/03 02:33:03;;;;;;;5.15;1.30;;;;;;;10.49;100.00;97328.03;5051974;28;20551;-52
2023/02/03 02:35:44;;;;;;;3.05;1.30;;;;;;;10.28;100.00;97326.13;5063018;28;20092;-53
2023/02/03 02:38:19;;;;;;;2.60;1.52;;;;;;;10.49;100.00;97331.50;5059700;28;20083;-51
2023/02/03 02:40:53;;;;;;;2.65;1.42;;;;;;;10.48;100.00;97345.66;5056482;28;20464;-51
2023/02/03 02:43:23;;;;;;;2.28;1.15;;;;;;;10.53;100.00;97332.09;5052867;28;20533;-52
2023/02/03 02:45:54;;;;;;;2.92;1.30;;;;;;;10.32;100.00;97324.94;5050775;28;20088;-52
2023/02/03 02:48:36;;;;;;;2.65;1.23;;;;;;;10.49;100.00;97317.47;5056202;28;20770;-51
2023/02/03 02:51:06;;;;;;;6.32;1.33;;;;;;;10.25;100.00;97312.34;5052869;28;20095;-50
2023/02/03 02:53:37;;;;;;;2.63;1.00;;;;;;;10.22;100.00;97311.63;5056588;28;20080;-49
2023/02/03 02:56:08;;;;;;;2.38;1.17;;;;;;;10.18;100.00;97304.91;5053635;28;20080;-54
2023/02/03 02:58:40;;;;;;;1.25;0.90;;;;;;;10.95;100.00;97308.50;5046544;28;20092;-46
2023/02/03 03:01:09;;;;;;;2.13;1.25;;;;;;;10.39;100.00;97306.81;5058121;28;20084;-57
2023/02/03 03:03:41;;;;;;;3.83;1.08;;;;;;;10.54;100.00;97321.44;5051714;28;20095;-49
2023/02/03 03:06:13;;;;;;;6.13;1.45;;;;;;;10.43;100.00;97314.38;5060160;28;20091;-54
2023/02/03 03:08:48;;;;;;;4.07;1.10;;;;;;;10.93;100.00;97317.34;5052907;28;20077;-54
2023/02/03 03:11:17;;;;;;;2.03;1.00;;;;;;;10.50;100.00;97301.56;5050780;28;20076;-50
2023/02/03 03:13:49;;;;;;;3.92;1.13;;;;;;;10.76;100.00;97311.78;5048687;28;20088;-55
2023/02/03 03:16:18;;;;;;;3.97;1.10;;;;;;;10.62;100.00;97305.81;5061674;28;20080;-51
2023/02/03 03:18:49;;;;;;;3.60;1.20;;;;;;;10.79;100.00;97309.72;5052087;28;20076;-51
2023/02/03 03:21:22;;;;;;;2.60;1.20;;;;;;;10.66;100.00;97320.44;5052385;28;20080;-51
2023/02/03 03:23:52;;;;;;;3.83;1.23;;;;;;;10.66;100.00;97312.53;5049573;28;21049;-53
2023/02/03 03:26:26;;;;;;;3.80;1.63;;;;;;;10.85;100.00;97309.25;5056299;28;20085;-53
2023/02/03 03:29:00;;;;;;;4.40;1.20;;;;;;;10.82;100.00;97280.47;5050381;28;20091;-55
2023/02/03 03:31:28;;;;;;;2.47;1.08;;;;;;;10.51;100.00;97276.84;5059489;28;20095;-52
2023/02/03 03:33:58;;;;;;;3.55;1.50;;;;;;;10.45;100.00;97282.59;5051848;28;20083;-56
2023/02/03 03:36:29;;;;;;;4.25;1.00;;;;;;;10.50;100.00;97283.09;5049010;28;20626;-50
2023/02/03 03:39:03;;;;;;;1.65;1.13;;;;;;;10.77;100.00;97279.16;5051733;28;20073;-50
2023/02/03 03:41:38;;;;;;;1.90;1.20;;;;;;;10.35;100.00;97274.59;5052340;28;20088;-52
2023/02/03 03:44:12;;;;;;;3.33;1.58;;;;;;;11.04;100.00;97274.25;5049894;28;20076;-53
2023/02/03 03:46:45;;;;;;;5.80;1.60;;;;;;;10.36;100.00;97281.56;5054876;28;20060;-52
2023/02/03 03:49:16;;;;;;;3.53;1.63;;;;;;;10.85;100.00;97296.03;5053177;28;20648;-51
2023/02/03 03:51:48;;;;;;;3.53;1.48;;;;;;;10.07;100.00;97302.28;5056712;28;20147;-52
2023/02/03 03:54:19;;;;;;;1.55;1.33;;;;;;;10.45;100.00;97288.72;5050926;28;20661;-50
2023/02/03 03:56:51;;;;;;;3.47;1.60;;;;;;;10.79;100.00;97293.06;5046159;28;20555;-50
2023/02/03 03:59:21;;;;;;;2.53;1.20;;;;;;;10.90;100.00;97283.28;5056849;28;20072;-49
2023/02/03 04:01:50;;;;;;;2.30;1.20;;;;;;;10.45;100.00;97272.06;5053600;28;20076;-51
2023/02/03 04:04:21;;;;;;;1.65;1.15;;;;;;;10.69;100.00;97304.38;5053667;28;20076;-52
2023/02/03 04:06:49;;;;;;;2.78;1.33;;;;;;;10.38;100.00;97289.34;5047383;28;20088;-51
2023/02/03 04:09:18;;;;;;;2.33;1.02;;;;;;;10.54;100.00;97300.34;5053269;28;20083;-50
2023/02/03 04:12:01;;;;;;;2.92;1.42;;;;;;;10.83;100.00;97308.50;5052580;28;20421;-52
2023/02/03 04:14:30;;;;;;;3.35;1.30;;;;;;;10.55;100.00;97311.72;5053477;28;20080;-54
2023/02/03 04:16:59;;;;;;;3.08;1.55;;;;;;;10.69;100.00;97322.00;5052799;28;20087;-49
2023/02/03 04:19:29;;;;;;;2.00;1.30;;;;;;;10.44;100.00;97320.50;5051628;28;20115;-48
2023/02/03 04:21:58;;;;;;;5.07;1.45;;;;;;;10.38;100.00;97328.88;5051630;28;20470;-51
2023/02/03 04:24:26;;;;;;;2.70;1.40;;;;;;;10.65;100.00;97317.94;5051573;28;20084;-48
2023/02/03 04:26:55;;;;;;;1.23;1.13;;;;;;;10.58;100.00;97306.19;5054373;28;20576;-52
2023/02/03 04:29:23;;;;;;;2.15;1.10;;;;;;;10.79;100.00;97304.44;5047974;28;20080;-53
2023/02/03 04:31:51;;;;;;;2.13;0.93;;;;;;;10.59;100.00;97299.97;5052322;28;20461;-54
2023/02/03 04:34:20;;;;;;;2.75;1.30;;;;;;;10.56;100.00;97298.41;5053471;28;20087;-52
2023/02/03 04:36:50;;;;;;;2.05;1.15;;;;;;;10.21;100.00;97294.13;5053943;28;20076;-50
2023/02/03 04:39:18;;;;;;;1.97;1.40;;;;;;;10.19;100.00;97325.06;5048327;28;20084;-51
2023/02/03 04:41:46;;;;;;;2.65;1.30;;;;;;;10.40;100.00;97332.25;5051002;28;20155;-52
2023/02/03 04:44:15;;;;;;;6.10;1.65;;;;;;;10.14;100.00;97332.47;5056316;28;20075;-50
2023/02/03 04:46:43;;;;;;;3.63;1.52;;;;;;;10.64;100.00;97330.28;5049728;28;20084;-51
2023/02/03 04:49:11;;;;;;;4.18;1.60;;;;;;;10.57;100.00;97312.44;5050810;28;20069;-49
2023/02/03 04:51:41;;;;;;;1.65;1.40;;;;;;;9.99;100.00;97289.72;5053396;28;20085;-51
2023/02/03 04:54:11;;;;;;;2.33;2.00;;;;;;;10.71;100.00;97314.81;5053496;28;20548;-49
2023/02/03 04:56:40;;;;;;;2.72;1.30;;;;;;;9.86;100.00;97317.97;5053731;28;20100;-51
2023/02/03 04:59:08;;;;;;;2.30;1.45;;;;;;;10.14;100.00;97329.00;5056044;28;20076;-51
2023/02/03 05:01:37;;;;;;;2.30;1.63;;;;;;;9.82;100.00;97316.53;5054441;28;20057;-51
2023/02/03 05:04:05;;;;;;;2.50;1.48;;;;;;;10.34;100.00;97280.84;5051756;28;20075;-50
2023/02/03 05:06:34;;;;;;;1.75;1.30;;;;;;;10.40;100.00;97314.63;5058828;28;20091;-49
2023/02/03 05:09:02;;;;;;;2.83;1.50;;;;;;;10.40;100.00;97322.53;5047733;28;20079;-49
2023/02/03 05:11:32;;;;;;;3.53;1.50;;;;;;;10.51;100.00;97321.69;5053908;28;20095;-50
2023/02/03 05:14:00;;;;;;;2.30;1.60;;;;;;;10.59;100.00;97321.88;5064600;28;20107;-51
2023/02/03 05:16:29;;;;;;;3.38;1.33;;;;;;;10.54;100.00;97326.72;5053012;28;20095;-53
2023/02/03 05:18:57;;;;;;;2.60;1.00;;;;;;;10.42;100.00;97328.50;5047982;28;20270;-47
2023/02/03 05:21:25;;;;;;;3.53;2.10;;;;;;;10.77;100.00;97306.41;5060910;28;20076;-48
2023/02/03 05:23:54;;;;;;;2.20;1.40;;;;;;;10.61;100.00;97304.16;5059275;28;20559;-52
2023/02/03 05:26:22;;;;;;;1.75;1.27;;;;;;;10.47;100.00;97304.44;5054606;28;20080;-51
2023/02/03 05:28:52;;;;;;;3.92;1.40;;;;;;;10.74;100.00;97306.66;5055617;28;20084;-50
2023/02/03 05:31:23;;;;;;;3.17;1.58;;;;;;;10.74;100.00;97304.00;5060776;28;20079;-50
2023/02/03 05:33:52;;;;;;;2.40;1.25;;;;;;;10.48;100.00;97294.72;5053324;28;20555;-49
2023/02/03 05:36:20;;;;;;;3.38;1.50;;;;;;;10.41;100.00;97291.72;5055219;28;20084;-53
2023/02/03 05:38:49;;;;;;;5.40;2.22;;;;;;;10.02;100.00;97282.53;5051175;28;20099;-52
2023/02/03 05:44:05;;;;;;;4.75;1.48;;;;;;;10.56;100.00;97281.75;5047687;28;20080;-50
2023/02/03 05:46:33;;;;;;;3.88;1.70;;;;;;;10.33;100.00;97276.53;5051786;28;20089;-49
2023/02/03 05:49:01;;;;;;;1.30;1.20;;;;;;;10.29;100.00;97272.47;5054417;28;20080;-51
2023/02/03 05:51:30;;;;;;;4.57;1.35;;;;;;;10.18;100.00;97293.53;5056771;28;20081;-48
2023/02/03 05:53:58;;;;;;;2.83;1.20;;;;;;;10.31;100.00;97306.63;5055367;28;20084;-54
2023/02/03 05:56:27;;;;;;;2.45;1.27;;;;;;;10.44;100.00;97308.16;5052879;28;20072;-49
2023/02/03 05:58:55;;;;;;;6.25;1.52;;;;;;;10.76;100.00;97295.94;5054500;28;20084;-46
2023/02/03 06:01:25;;;;;;;2.65;1.33;;;;;;;10.58;100.00;97288.56;5052619;28;20095;-50
2023/02/03 06:03:53;;;;;;;2.38;1.17;;;;;;;10.28;100.00;97283.97;5056029;28;20091;-54
2023/02/03 06:06:22;;;;;;;2.90;1.20;;;;;;;10.32;100.00;97290.66;5053402;28;20077;-52
2023/02/03 06:08:55;;;;;;;4.18;1.48;;;;;;;10.54;100.00;97302.16;5049654;28;20091;-51
2023/02/03 06:11:24;;;;;;;3.80;1.73;;;;;;;10.17;100.00;97300.59;5052751;28;20132;-49
2023/02/03 06:13:52;;;;;;;3.63;1.10;;;;;;;10.30;100.00;97300.50;5055739;28;20045;-54
2023/02/03 06:16:23;;;;;;;2.25;1.00;;;;;;;10.35;100.00;97298.31;5055301;28;20076;-52
2023/02/03 06:18:54;;;;;;;2.78;1.50;;;;;;;10.21;100.00;97298.56;5050539;28;20079;-52
2023/02/03 06:21:22;;;;;;;2.90;1.50;;;;;;;10.59;100.00;97303.44;5057855;28;20072;-50
2023/02/03 06:23:51;;;;;;;3.15;1.20;;;;;;;10.09;100.00;97304.81;5055332;28;20543;-53
2023/02/03 06:26:19;;;;;;;3.83;1.15;;;;;;;10.04;100.00;97281.44;5055999;28;20081;-54
2023/02/03 06:28:48;;;;;;;2.10;1.50;;;;;;;10.39;100.00;97293.63;5053420;28;20084;-48
2023/02/03 06:31:16;;;;;;;2.47;1.33;;;;;;;10.18;100.00;97275.06;5057260;28;20088;-49
2023/02/03 06:33:45;;;;;;;3.55;1.30;;;;;;;10.43;100.00;97277.47;5053249;28;20080;-50
2023/02/03 06:36:14;;;;;;;3.90;1.67;;;;;;;10.49;100.00;97289.31;5055159;28;20087;-54
2023/02/03 06:38:43;;;;;;;4.43;1.40;;;;;;;10.27;100.00;97292.84;5055298;28;20087;-50
2023/02/03 06:41:11;;;;;;;1.60;1.25;;;;;;;10.55;100.00;97306.44;5049386;28;20083;-49
2023/02/03 06:43:39;;;;;;;4.75;1.42;;;;;;;10.39;100.00;97307.69;5053289;28;20084;-51
2023/02/03 06:46:08;;;;;;;2.22;1.30;;;;;;;10.04;100.00;97305.16;5057448;28;20080;-49
2023/02/03 06:48:36;;;;;;;2.42;1.30;;;;;;;10.02;100.00;97322.91;5056341;28;20091;-53
2023/02/03 06:51:06;;;;;;;1.85;1.50;;;;;;;9.92;100.00;97328.03;5048689;28;20076;-50
2023/02/03 06:53:35;;;;;;;2.72;1.25;;;;;;;10.51;100.00;97313.75;5052341;28;20072;-52
2023/02/03 06:56:04;;;;;;;5.40;1.47;;;;;;;9.96;100.00;97311.03;5048158;28;20084;-49
2023/02/03 06:58:33;;;;;;;1.73;1.45;;;;;;;10.38;100.00;97318.34;5063707;28;20084;-49
2023/02/03 07:01:01;;;;;;;4.03;1.42;;;;;;;10.07;100.00;97323.38;5053245;28;20080;-51
2023/02/03 07:03:29;;;;;;;1.85;1.30;;;;;;;10.23;100.00;97310.66;5050093;28;20084;-53
2023/02/03 07:05:58;;;;;;;3.00;1.30;;;;;;;10.34;100.00;97306.38;5048898;28;20088;-52
2023/02/03 07:08:26;;;;;;;4.78;1.40;;;;;;;10.14;100.00;97298.19;5042427;28;20091;-55
2023/02/03 07:10:56;;;;;;;2.22;1.30;;;;;;;11.06;100.00;97289.97;5057318;28;20088;-49
2023/02/03 07:13:24;;;;;;;2.50;1.50;;;;;;;10.42;100.00;97286.31;5056625;28;20072;-47
2023/02/03 07:15:53;;;;;;;4.65;1.48;;;;;;;10.41;100.00;97278.56;5052013;28;20099;-49
2023/02/03 07:18:23;;;;;;;3.45;1.30;;;;;;;10.66;100.00;97267.69;5054103;28;20084;-53
2023/02/03 07:21:12;;;;;;;2.05;1.33;;;;;;;10.53;100.00;97280.22;5046099;28;20076;-53
2023/02/03 07:23:41;;;;;;;3.42;1.70;;;;;;;10.62;100.00;97290.00;5048213;28;20085;-52
2023/02/03 07:26:11;;;;;;;1.73;1.20;;;;;;;10.61;100.00;97287.50;5042093;28;20076;-49
2023/02/03 07:28:39;;;;;;;5.32;1.58;;;;;;;10.43;100.00;97289.81;5056690;28;20091;-51
2023/02/03 07:31:09;;;;;;;3.97;1.40;;;;;;;10.89;100.00;97291.34;5054322;28;20073;-47
2023/02/03 07:33:38;;;;;;;1.85;1.13;;;;;;;10.45;100.00;97296.63;5050378;28;20091;-47
2023/02/03 07:36:08;;;;;;;4.60;1.20;;;;;;;10.72;100.00;97287.44;5049869;28;20073;-51
2023/02/03 07:38:37;;;;;;;2.10;1.40;;;;;;;10.77;100.00;97303.75;5056075;28;20089;-53
2023/02/03 07:41:06;;;;;;;2.47;1.38;;;;;;;10.19;100.00;97290.78;5049616;28;20490;-50
2023/02/03 07:43:35;;;;;;;3.85;1.55;;;;;;;10.35;100.00;97294.84;5053110;28;20084;-51
2023/02/03 07:46:04;;;;;;;5.03;1.63;;;;;;;11.14;100.00;97295.44;5047147;28;20168;-51
2023/02/03 07:48:33;;;;;;;2.75;1.40;;;;;;;10.79;100.00;97279.88;5051519;28;20084;-51
2023/02/03 07:51:01;;;;;;;3.13;1.50;;;;;;;11.36;100.00;97268.09;5047316;28;20091;-53
2023/02/03 07:53:29;;;;;;;2.75;1.10;;;;;;;10.92;100.00;97265.53;5059944;28;20080;-51
2023/02/03 07:56:00;;;;;;;1.30;1.20;;;;;;;10.73;100.00;97267.19;5044169;28;20099;-51
2023/02/03 07:58:28;;;;;;;1.70;1.20;;;;;;;10.45;100.00;97261.50;5048215;28;20084;-51
2023/02/03 08:00:59;;;;;;;2.35;1.27;;;;;;;10.63;100.00;97259.19;5050276;28;20657;-47
2023/02/03 08:03:27;;;;;;;3.13;1.30;;;;;;;10.55;100.00;97237.88;5053203;28;20093;-52
2023/02/03 08:05:55;;;;;;;4.85;1.20;;;;;;;10.59;100.00;97253.31;5053146;28;20091;-51
2023/02/03 08:08:24;;;;;;;4.05;1.20;;;;;;;11.00;100.00;97258.78;5055329;28;20088;-53
2023/02/03 08:10:55;;;;;;;2.25;1.17;;;;;;;11.03;100.00;97259.38;5050000;28;20104;-52
2023/02/03 08:13:23;;;;;;;4.07;1.20;;;;;;;10.33;100.00;97242.25;5055678;28;20088;-48
2023/02/03 08:15:52;;;;;;;1.67;1.02;;;;;;;11.19;100.00;97281.88;5050592;28;20087;-53
2023/02/03 08:18:21;;;;;;;1.10;1.00;;;;;;;11.06;100.00;97287.31;5047019;28;20088;-47
2023/02/03 08:20:50;;;;;;;2.47;1.37;;;;;;;11.05;100.00;97294.41;5054051;28;20080;-51
2023/02/03 08:23:18;;;;;;;5.68;1.27;;;;;;;10.93;100.00;97309.44;5051594;28;21026;-52
2023/02/03 08:25:50;;;;;;;4.15;1.25;;;;;;;10.81;100.00;97313.09;5042177;28;20095;-53
2023/02/03 08:28:19;;;;;;;1.13;1.00;;;;;;;11.11;100.00;97314.16;5050583;28;20091;-50
2023/02/03 08:30:47;;;;;;;1.73;0.95;;;;;;;11.19;100.00;97321.47;5050640;28;20091;-55
2023/02/03 08:33:16;;;;;;;2.33;1.10;;;;;;;11.56;100.00;97311.28;5051046;28;20069;-50
2023/02/03 08:35:47;;;;;;;1.23;1.10;;;;;;;11.20;100.00;97291.47;5054765;28;20085;-49
2023/02/03 08:38:15;;;;;;;1.42;0.95;;;;;;;11.38;100.00;97295.19;5046456;28;20089;-52
2023/02/03 08:40:44;;;;;;;1.13;1.02;;;;;;;11.10;100.00;97299.28;5053633;28;20495;-50
2023/02/03 08:43:12;;;;;;;1.40;0.85;;;;;;;11.10;100.00;97289.56;5058801;28;20103;-49
2023/02/03 08:45:41;;;;;;;1.65;0.90;;;;;;;11.15;100.00;97295.31;5051313;28;20072;-53
2023/02/03 08:48:09;;;;;;;2.88;1.20;;;;;;;10.75;100.00;97299.56;5052223;28;20065;-53
2023/02/03 08:50:37;;;;;;;1.33;0.80;;;;;;;11.25;100.00;97294.53;5050470;28;20080;-49
2023/02/03 08:53:07;;;;;;;3.03;1.10;;;;;;;11.54;98.96;97279.72;5055482;28;20084;-48
2023/02/03 08:55:38;;;;;;;3.20;0.90;;;;;;;10.98;100.00;97252.78;5058465;28;20087;-51
2023/02/03 08:58:07;;;;;;;1.60;1.10;;;;;;;11.17;100.00;97260.88;5053636;28;20076;-48
2023/02/03 09:00:35;;;;;;;1.20;1.08;;;;;;;11.56;100.00;97277.81;5051225;28;20083;-51
2023/02/03 09:03:04;;;;;;;1.10;1.00;;;;;;;11.21;100.00;97277.28;5051582;28;20092;-53
2023/02/03 09:05:33;;;;;;;4.18;0.95;;;;;;;11.48;100.00;97293.44;5050738;28;20096;-56
2023/02/03 09:08:01;;;;;;;2.17;0.90;;;;;;;11.43;100.00;97278.97;5050704;28;20111;-51
2023/02/03 09:10:31;;;;;;;2.17;1.08;;;;;;;11.40;100.00;97294.09;5060536;28;20076;-52
2023/02/03 09:13:00;;;;;;;2.45;1.00;;;;;;;11.34;99.22;97283.22;5055278;28;20079;-49
2023/02/03 09:15:28;;;;;;;1.77;1.52;;;;;;;11.59;100.00;97285.44;5062048;28;20080;-54
2023/02/03 09:17:56;;;;;;;0.82;0.80;;;;;;;11.72;97.68;97264.09;5053124;28;20088;-52
2023/02/03 09:20:25;;;;;;;2.78;1.08;;;;;;;11.92;96.22;97272.16;5056292;28;20080;-55
2023/02/03 09:22:54;;;;;;;2.13;0.88;;;;;;;11.46;99.24;97236.44;5053615;28;20080;-52
2023/02/03 09:25:22;;;;;;;2.58;1.02;;;;;;;11.52;98.21;97243.84;5039761;28;20454;-52
2023/02/03 09:27:52;;;;;;;2.35;1.10;;;;;;;11.52;98.70;97244.66;5060258;28;20075;-52
2023/02/03 09:30:21;;;;;;;1.00;0.90;;;;;;;11.68;100.00;97264.50;5049134;28;20076;-49
2023/02/03 09:32:53;;;;;;;0.90;0.90;;;;;;;11.40;100.00;97274.78;5056880;28;20076;-54
2023/02/03 09:35:21;;;;;;;2.03;1.10;;;;;;;11.37;99.05;97252.09;5043977;28;20072;-49
2023/02/03 09:37:50;;;;;;;1.48;1.05;;;;;;;11.71;100.00;97256.31;5050006;28;20084;-54
2023/02/03 09:40:21;;;;;;;1.98;1.13;;;;;;;11.42;97.65;97256.97;5043654;28;20087;-52
2023/02/03 09:43:05;;;;;;;1.25;1.00;;;;;;;11.57;97.73;97250.41;5053839;28;20087;-53
2023/02/03 09:45:33;;;;;;;2.58;0.95;;;;;;;11.67;93.63;97244.34;5049954;28;20111;-52
2023/02/03 09:48:06;;;;;;;1.85;1.00;;;;;;;11.66;91.70;97259.34;5049517;28;20461;-53
2023/02/03 09:50:35;;;;;;;1.13;0.90;;;;;;;11.50;98.73;97248.44;5052814;28;20540;-51
2023/02/03 09:53:07;;;;;;;1.08;0.80;;;;;;;11.51;98.57;97268.59;5049837;28;20095;-48
2023/02/03 09:55:38;;;;;;;1.50;0.95;;;;;;;11.69;98.53;97271.44;5054949;28;20505;-50
2023/02/03 09:58:12;;;;;;;1.75;1.15;;;;;;;11.95;93.41;97251.59;5060329;28;20084;-53
2023/02/03 10:00:43;;;;;;;1.55;1.00;;;;;;;11.63;99.31;97241.97;5057270;28;20084;-50
2023/02/03 10:03:20;;;;;;;1.83;1.10;;;;;;;11.43;100.00;97239.34;5050181;28;20528;-50
2023/02/03 10:06:07;;;;;;;1.63;1.05;;;;;;;11.66;97.57;97246.13;5059562;28;20084;-53
2023/02/03 10:08:45;;;;;;;2.40;1.20;;;;;;;11.35;100.00;97240.81;5052903;28;20076;-53
2023/02/03 10:11:22;;;;;;;2.85;1.10;;;;;;;11.94;100.00;97241.97;5034219;28;20544;-50
2023/02/03 10:14:04;;;;;;;1.92;1.00;;;;;;;11.64;95.59;97216.38;5057548;28;20091;-50
2023/02/03 10:16:46;;;;;;;2.47;1.02;;;;;;;11.71;95.84;97246.59;5046396;28;20513;-50
2023/02/03 10:19:19;;;;;;;1.77;1.00;;;;;;;12.23;93.43;97244.69;5061256;28;20073;-51
2023/02/03 10:21:51;;;;;;;2.30;1.20;;;;;;;11.99;94.45;97231.84;5056104;28;20174;-51
2023/02/03 10:24:22;;;;;;;1.75;0.90;;;;;;;12.11;91.07;97228.13;5046054;28;20075;-48
2023/02/03 10:26:51;;;;;;;1.30;0.95;;;;;;;12.08;95.04;97243.41;5058640;28;20076;-50
2023/02/03 10:29:23;;;;;;;1.48;1.08;;;;;;;11.83;90.84;97234.09;5051401;28;20061;-52
2023/02/03 10:31:56;;;;;;;2.15;0.98;;;;;;;12.39;95.97;97249.47;5049439;28;20103;-55
2023/02/03 10:34:26;;;;;;;3.70;1.05;;;;;;;11.87;97.34;97232.88;5051959;28;20072;-50
2023/02/03 10:36:56;;;;;;;2.40;0.80;;;;;;;11.90;96.88;97248.47;5054928;28;20129;-52
2023/02/03 10:39:33;;;;;;;1.83;1.30;;;;;;;11.94;93.95;97236.69;5052158;28;20535;-50
2023/02/03 10:42:03;;;;;;;3.63;1.20;;;;;;;11.61;95.66;97232.50;5055338;28;20084;-52
2023/02/03 10:44:38;;;;;;;2.15;1.00;;;;;;;11.82;96.59;97248.28;5056430;28;20067;-50
2023/02/03 10:47:21;;;;;;;1.55;1.08;;;;;;;11.69;93.29;97068.00;5050460;28;20084;-53
2023/02/03 10:49:51;;;;;;;1.20;0.95;;;;;;;11.53;100.00;97180.31;5056052;28;20087;-51
2023/02/03 10:52:28;;;;;;;1.40;1.10;;;;;;;11.74;97.78;97208.50;5055898;28;20077;-52
2023/02/03 10:54:58;;;;;;;1.10;1.00;;;;;;;12.68;97.38;97222.22;5048241;28;20081;-52
2023/02/03 10:57:29;;;;;;;3.72;1.13;;;;;;;11.32;100.00;97240.25;5043163;28;20087;-50
2023/02/03 11:00:08;;;;;;;2.15;1.60;;;;;;;11.72;100.00;97231.56;5048626;28;20084;-54
2023/02/03 11:02:37;;;;;;;4.40;1.47;;;;;;;12.22;100.00;97244.84;5028884;28;20080;-51
2023/02/03 11:05:11;;;;;;;1.67;1.50;;;;;;;11.72;98.60;97247.41;5051283;28;20482;-51
2023/02/03 11:07:39;;;;;;;2.08;1.60;;;;;;;11.65;98.67;97205.66;5053702;28;20103;-50
2023/02/03 11:10:26;;;;;;;2.25;1.30;;;;;;;11.67;100.00;97178.28;5032889;28;20075;-54
2023/02/03 11:13:11;;;;;;;1.40;1.08;;;;;;;11.76;98.48;97215.28;5057530;28;20068;-51
2023/02/03 11:15:49;;;;;;;1.80;1.00;;;;;;;12.15;97.28;97209.31;5056769;28;20088;-53
2023/02/03 11:18:39;;;;;;;2.13;0.90;;;;;;;12.46;90.94;97165.94;5054901;28;20452;-51
2023/02/03 11:21:10;;;;;;;1.50;1.15;;;;;;;12.30;93.28;97178.88;5052110;28;20083;-54
2023/02/03 11:24:01;;;;;;;2.35;1.02;;;;;;;12.46;93.17;97199.50;5048737;28;20084;-51
2023/02/03 11:26:33;;;;;;;4.22;1.00;;;;;;;11.97;99.14;97191.47;5054847;28;20081;-47
2023/02/03 11:29:03;;;;;;;2.25;1.10;;;;;;;12.25;94.38;97194.31;5050540;28;20081;-51
2023/02/03 11:31:35;;;;;;;2.70;1.40;;;;;;;12.28;95.08;97188.75;5055644;28;20079;-49
2023/02/03 11:34:06;;;;;;;2.53;1.30;;;;;;;11.95;100.00;97189.94;5050563;28;20501;-55
2023/02/03 11:36:35;;;;;;;1.50;1.20;;;;;;;11.55;100.00;97151.94;5054769;28;20458;-53
2023/02/03 11:39:14;;;;;;;0.88;0.80;;;;;;;12.02;95.59;97191.91;5047245;28;20496;-54
2023/02/03 11:41:43;;;;;;;1.70;1.13;;;;;;;12.11;96.45;97193.75;5060050;28;20084;-51
2023/02/03 11:44:13;;;;;;;1.55;1.02;;;;;;;12.34;92.70;97186.38;5052006;28;20083;-53
2023/02/03 11:46:43;;;;;;;4.28;1.50;;;;;;;11.74;97.50;97161.75;5049052;28;20087;-50